This is the latest recevied weather packets stored in our database for station/object 9W2CHF-3. If no packets are shown the sender has not sent any weather packets the latest 10 day(s).
| Time | Temp. | Humidity | Pressure | Rain* | Wind** | Luminosity | Snow |
|---|---|---|---|---|---|---|---|
| 1778089287 | 31.11° C | 93% | 1009.5 hPa | - | - | - | - |
| 1778088087 | 30° C | 98% | 1009.6 hPa | - | - | - | - |
| 1778086898 | 30.56° C | 96% | 1010.3 hPa | - | - | - | - |
| 1778085698 | 30.56° C | 94% | 1010.1 hPa | - | - | - | - |
| 1778084498 | 30.56° C | 98% | 1010.4 hPa | - | - | - | - |
| 1778083298 | 32.78° C | 84% | 1010.4 hPa | - | - | - | - |
| 1778082098 | 31.67° C | 89% | 1010.3 hPa | - | - | - | - |
| 1778080898 | 31.67° C | 86% | 1010.4 hPa | - | - | - | - |
| 1778079698 | 31.67° C | 89% | 1010.5 hPa | - | - | - | - |
| 1778078498 | 32.78° C | 83% | 1010.3 hPa | - | - | - | - |
| 1778077298 | 31.67° C | 95% | 1010 hPa | - | - | - | - |
| 1778076099 | 32.78° C | 82% | 1009.8 hPa | - | - | - | - |
| 1778074898 | 30.56° C | 96% | 1009.4 hPa | - | - | - | - |
| 1778073698 | 31.11° C | 95% | 1009.3 hPa | - | - | - | - |
| 1778072498 | 31.11° C | 94% | 1008.9 hPa | - | - | - | - |
| 1778071298 | 31.11° C | 92% | 1008.9 hPa | - | - | - | - |
| 1778070098 | 31.11° C | 91% | 1008.8 hPa | - | - | - | - |
| 1778068898 | 32.22° C | 83% | 1008.5 hPa | - | - | - | - |
| 1778067711 | 35.56° C | 72% | 1008.3 hPa | - | - | - | - |
| 1778066497 | 32.22° C | 85% | 1008 hPa | - | - | - | - |
| 1778065297 | 33.33° C | 78% | 1007.7 hPa | - | - | - | - |
| 1778064102 | 33.89° C | 69% | 1007.6 hPa | - | - | - | - |
| 1778062897 | 35° C | 61% | 1007.2 hPa | - | - | - | - |
| 1778061699 | 36.67° C | 53% | 1007.2 hPa | - | - | - | - |
| 1778060497 | 38.33° C | 53% | 1006.9 hPa | - | - | - | - |
* Rain since midnight (hover to see other rain measurements)
** Current wind speed in m/s (hover to see current wind gust speed)